createdAt,value
2022-11-29T17:25:35.865Z,21.22
2022-11-29T17:28:17.549Z,21.29
2022-11-29T17:30:54.436Z,21.30
2022-11-29T17:33:33.391Z,21.25
2022-11-29T17:36:12.668Z,21.28
2022-11-29T17:38:48.992Z,21.25
2022-11-29T17:41:25.869Z,21.28
2022-11-29T17:43:57.238Z,21.26
2022-11-29T17:46:39.904Z,21.24
2022-11-29T17:49:19.839Z,21.23
2022-11-29T17:51:52.184Z,21.00
2022-11-29T17:54:25.637Z,20.89
2022-11-29T17:56:59.439Z,20.93
2022-11-29T17:59:32.350Z,20.99
2022-11-29T18:02:05.763Z,20.88
2022-11-29T18:04:37.082Z,20.92
2022-11-29T18:07:19.687Z,20.84
2022-11-29T18:09:56.052Z,20.90
2022-11-29T18:12:28.978Z,20.67
2022-11-29T18:15:01.957Z,20.83
2022-11-29T18:17:35.600Z,20.78
2022-11-29T18:20:13.607Z,20.81
2022-11-29T18:22:50.610Z,20.69
2022-11-29T18:25:41.380Z,20.73
2022-11-29T18:28:11.911Z,20.54
2022-11-29T18:30:50.846Z,20.59
2022-11-29T18:33:22.638Z,20.62
2022-11-29T18:35:55.688Z,20.45
2022-11-29T18:38:25.882Z,20.47
2022-11-29T18:40:57.772Z,20.59
2022-11-29T18:43:30.209Z,20.62
2022-11-29T18:45:57.439Z,20.62
2022-11-29T18:48:24.795Z,20.58
2022-11-29T18:50:52.890Z,20.45
2022-11-29T18:53:21.060Z,20.27
2022-11-29T18:56:02.404Z,20.26
2022-11-29T18:58:30.090Z,20.12
2022-11-29T19:01:15.383Z,20.23
2022-11-29T19:03:53.685Z,20.24
2022-11-29T19:06:24.525Z,20.21
2022-11-29T19:08:56.858Z,20.20
2022-11-29T19:11:33.074Z,20.14
2022-11-29T19:14:09.827Z,20.11
2022-11-29T19:16:41.035Z,20.04
2022-11-29T19:19:15.857Z,20.02
2022-11-29T19:21:43.312Z,20.01
2022-11-29T19:24:20.399Z,19.95
2022-11-29T19:26:49.342Z,19.89
2022-11-29T19:29:22.998Z,19.84
2022-11-29T19:31:59.073Z,19.77
2022-11-29T19:34:31.331Z,19.67
2022-11-29T19:37:03.057Z,19.68
2022-11-29T19:39:37.011Z,19.64
2022-11-29T19:42:17.310Z,19.48
2022-11-29T19:45:16.635Z,19.49
2022-11-29T19:47:50.593Z,19.42
2022-11-29T19:50:28.261Z,19.35
2022-11-29T19:53:16.567Z,19.36
2022-11-29T19:56:02.453Z,19.28
2022-11-29T19:58:35.136Z,19.28
2022-11-29T20:01:14.994Z,19.20
2022-11-29T20:03:55.690Z,19.22
2022-11-29T20:06:26.536Z,19.19
2022-11-29T20:09:08.907Z,19.19
2022-11-29T20:11:39.116Z,19.11
2022-11-29T20:14:08.320Z,19.07
2022-11-29T20:16:41.405Z,19.01
2022-11-29T20:19:17.565Z,18.97
2022-11-29T20:21:51.363Z,18.93
2022-11-29T20:24:23.759Z,18.86
2022-11-29T20:26:51.700Z,18.89
2022-11-29T20:29:33.706Z,18.80
2022-11-29T20:32:18.197Z,18.84
2022-11-29T20:34:54.489Z,18.75
2022-11-29T20:37:44.881Z,18.66
2022-11-29T20:40:24.643Z,18.62
2022-11-29T20:43:23.941Z,18.61
2022-11-29T20:45:56.224Z,18.60
2022-11-29T20:48:29.066Z,18.54
2022-11-29T20:51:15.381Z,18.56
2022-11-29T20:53:57.486Z,18.48
2022-11-29T20:56:31.708Z,18.48
2022-11-29T20:59:04.080Z,18.44
2022-11-29T21:01:42.775Z,18.35
2022-11-29T21:04:22.951Z,18.32
2022-11-29T21:06:57.902Z,18.29
2022-11-29T21:09:29.266Z,18.19
2022-11-29T21:12:02.791Z,18.17
2022-11-29T21:14:38.066Z,18.17
2022-11-29T21:17:14.754Z,18.13
2022-11-29T21:19:45.567Z,18.14
2022-11-29T21:22:41.778Z,18.14
2022-11-29T21:25:18.192Z,18.10
2022-11-29T21:28:02.713Z,18.03
2022-11-29T21:30:39.463Z,18.00
2022-11-29T21:33:15.452Z,17.96
2022-11-29T21:35:52.498Z,17.98
2022-11-29T21:38:30.883Z,17.97
2022-11-29T21:41:03.722Z,17.94
2022-11-29T21:44:05.558Z,17.89
2022-11-29T21:46:41.594Z,17.85
2022-11-29T21:49:15.755Z,17.85
2022-11-29T21:51:58.506Z,17.85
2022-11-29T21:54:30.260Z,17.84
2022-11-29T21:59:59.524Z,17.74
2022-11-29T22:02:49.952Z,17.70
2022-11-29T22:05:28.440Z,17.55
2022-11-29T22:07:56.365Z,17.45
2022-11-29T22:10:23.637Z,17.46
2022-11-29T22:12:52.588Z,17.42
2022-11-29T22:15:24.419Z,17.41
2022-11-29T22:17:53.899Z,17.24
2022-11-29T22:20:21.999Z,17.38
2022-11-29T22:22:55.734Z,17.41
2022-11-29T22:25:30.127Z,17.41
2022-11-29T22:28:00.006Z,17.41
2022-11-29T22:30:27.258Z,17.41
2022-11-29T22:32:57.360Z,17.36
2022-11-29T22:35:24.879Z,17.31
2022-11-29T22:37:54.198Z,17.24
2022-11-29T22:40:21.505Z,17.16
2022-11-29T22:42:50.871Z,17.08
2022-11-29T22:45:18.338Z,16.90
2022-11-29T22:47:45.730Z,16.80
2022-11-29T22:50:14.179Z,16.84
2022-11-29T22:52:41.438Z,16.80
2022-11-29T22:55:09.072Z,16.84
2022-11-29T22:57:39.099Z,16.80
2022-11-29T23:00:07.436Z,16.82
2022-11-29T23:02:34.725Z,16.83
2022-11-29T23:05:02.072Z,16.72
2022-11-29T23:07:29.228Z,16.73
2022-11-29T23:09:56.430Z,16.59
2022-11-29T23:12:26.216Z,16.54
2022-11-29T23:14:57.270Z,16.48
2022-11-29T23:17:27.801Z,16.48
2022-11-29T23:19:55.407Z,16.39
2022-11-29T23:22:29.902Z,16.53
2022-11-29T23:24:57.390Z,16.57
2022-11-29T23:27:27.554Z,16.46
2022-11-29T23:29:57.959Z,16.53
2022-11-29T23:32:28.191Z,16.60
2022-11-29T23:34:58.981Z,16.63
2022-11-29T23:37:29.996Z,16.56
2022-11-29T23:39:57.413Z,16.43
2022-11-29T23:42:26.303Z,16.48
2022-11-29T23:44:58.253Z,16.42
2022-11-29T23:47:26.641Z,16.33
2022-11-29T23:49:54.710Z,16.41
2022-11-29T23:52:23.271Z,16.49
2022-11-29T23:54:51.209Z,16.43
2022-11-29T23:57:21.599Z,16.38
2022-11-29T23:59:51.922Z,16.37
